Map

Track Data

SID SEASON NUMBER BASIN SUBBASIN NAME ISO_TIME NATURE LAT LON WMO_WIND WMO_PRES WMO_AGENCY TRACK_TYPE DIST2LAND LANDFALL IFLAG USA_AGENCY USA_ATCF_ID USA_LAT USA_LON USA_RECORD USA_STATUS USA_WIND USA_PRES USA_SSHS USA_R34_NE USA_R34_SE USA_R34_SW USA_R34_NW USA_R50_NE USA_R50_SE USA_R50_SW USA_R50_NW USA_R64_NE USA_R64_SE USA_R64_SW USA_R64_NW USA_POCI USA_ROCI USA_RMW USA_EYE TOKYO_LAT TOKYO_LON TOKYO_GRADE TOKYO_WIND TOKYO_PRES TOKYO_R50_DIR TOKYO_R50_LONG TOKYO_R50_SHORT TOKYO_R30_DIR TOKYO_R30_LONG TOKYO_R30_SHORT TOKYO_LAND CMA_LAT CMA_LON CMA_CAT CMA_WIND CMA_PRES HKO_LAT HKO_LON HKO_CAT HKO_WIND HKO_PRES NEWDELHI_LAT NEWDELHI_LON NEWDELHI_GRADE NEWDELHI_WIND NEWDELHI_PRES NEWDELHI_CI NEWDELHI_DP NEWDELHI_POCI REUNION_LAT REUNION_LON REUNION_TYPE REUNION_WIND REUNION_PRES REUNION_TNUM REUNION_CI REUNION_RMW REUNION_R34_NE REUNION_R34_SE REUNION_R34_SW REUNION_R34_NW REUNION_R50_NE REUNION_R50_SE REUNION_R50_SW REUNION_R50_NW REUNION_R64_NE REUNION_R64_SE REUNION_R64_SW REUNION_R64_NW BOM_LAT BOM_LON BOM_TYPE BOM_WIND BOM_PRES BOM_TNUM BOM_CI BOM_RMW BOM_R34_NE BOM_R34_SE BOM_R34_SW BOM_R34_NW BOM_R50_NE BOM_R50_SE BOM_R50_SW BOM_R50_NW BOM_R64_NE BOM_R64_SE BOM_R64_SW BOM_R64_NW BOM_ROCI BOM_POCI BOM_EYE BOM_POS_METHOD BOM_PRES_METHOD NADI_LAT NADI_LON NADI_CAT NADI_WIND NADI_PRES WELLINGTON_LAT WELLINGTON_LON WELLINGTON_WIND WELLINGTON_PRES DS824_LAT DS824_LON DS824_STAGE DS824_WIND DS824_PRES TD9636_LAT TD9636_LON TD9636_STAGE TD9636_WIND TD9636_PRES TD9635_LAT TD9635_LON TD9635_WIND TD9635_PRES TD9635_ROCI NEUMANN_LAT NEUMANN_LON NEUMANN_CLASS NEUMANN_WIND NEUMANN_PRES MLC_LAT MLC_LON MLC_CLASS MLC_WIND MLC_PRES USA_GUST BOM_GUST BOM_GUST_PER REUNION_GUST REUNION_GUST_PER USA_SEAHGT USA_SEARAD_NE USA_SEARAD_SE USA_SEARAD_SW USA_SEARAD_NW STORM_SPEED STORM_DIR
1993023S14120 1993 6 SI WA LENA 1993-01-22 18:00:00 TS -14.2000 119.800 main 418 418 O___________O_ jtwc_sh SH131993 -14.2000 119.800 20 -1 -14.2000 119.800 TC 20 4 25
1993023S14120 1993 6 SI WA LENA 1993-01-22 21:00:00 TS -14.0000 119.893 main 419 395 P___________P_ SH131993 -14.0000 119.893 22 -1 -14.0000 119.893 TC 22 4 26
1993023S14120 1993 6 SI WA LENA 1993-01-23 00:00:00 TS -13.8000 120.000 main 395 372 O___________O_ jtwc_sh SH131993 -13.8000 120.000 25 -1 -13.8000 120.000 TC 25 5 31
1993023S14120 1993 6 SI WA LENA 1993-01-23 03:00:00 TS -13.6125 120.135 main 372 359 P___________P_ SH131993 -13.6125 120.135 25 -1 -13.6125 120.135 TC 25 4 44
1993023S14120 1993 6 SI WA LENA 1993-01-23 06:00:00 TS -13.5000 120.300 main 359 358 O___________O_ jtwc_sh SH131993 -13.5000 120.300 25 -1 -13.5000 120.300 TC 25 4 73
1993023S14120 1993 6 SI WA LENA 1993-01-23 09:00:00 TS -13.4975 120.515 main 358 358 P___________P_ SH131993 -13.4975 120.515 25 -1 -13.4975 120.515 TC 25 4 104
1993023S14120 1993 6 SI WA LENA 1993-01-23 12:00:00 TS -13.6000 120.700 main 370 370 O___________O_ jtwc_sh SH131993 -13.6000 120.700 25 -1 -13.6000 120.700 TC 25 4 137
1993023S14120 1993 6 SI WA LENA 1993-01-23 15:00:00 TS -13.7850 120.795 main 377 359 P___________P_ SH131993 -13.7850 120.795 25 -1 -13.7850 120.795 TC 25 4 167
1993023S14120 1993 6 SI WA LENA 1993-01-23 18:00:00 TS -14.0000 120.800 main 359 349 O___________O_ jtwc_sh SH131993 -14.0000 120.800 25 -1 -14.0000 120.800 TC 25 4 189
1993023S14120 1993 6 SI WA LENA 1993-01-23 21:00:00 TS -14.1575 120.738 main 349 349 P___________P_ SH131993 -14.1575 120.738 27 -1 -14.1575 120.738 TC 27 3 217
1993023S14120 1993 6 SI WA LENA 1993-01-24 00:00:00 TS -14.2333 120.622 30 997 bom main 356 348 O_____O_____O_ jtwc_sh SH131993 -14.3000 120.600 30 -1 -13.7000 120.800 20 30 997 2.50000 215 3 5 -14.3000 120.600 TC 30 3 235
1993023S14120 1993 6 SI WA LENA 1993-01-24 03:00:00 TS -14.3260 120.490 35 995 bom main 356 356 P_____O_____P_ SH131993 -14.4574 120.437 32 -1 -13.8000 120.700 30 35 995 3.00000 215 3 5 -14.4574 120.437 TC 32 4 240
1993023S14120 1993 6 SI WA LENA 1993-01-24 06:00:00 TS -14.4091 120.309 40 990 bom main 363 363 O_____O_____O_ jtwc_sh SH131993 -14.6000 120.200 35 0 -13.9000 120.600 30 40 990 3.00000 215 3 5 -14.6000 120.200 TC 35 4 248
1993023S14120 1993 6 SI WA LENA 1993-01-24 09:00:00 TS -14.4717 120.110 40 990 bom main 371 371 P_____O_____P_ SH131993 -14.7076 119.865 35 0 -14.0000 120.600 30 40 990 3.00000 215 3 5 -14.7076 119.865 TC 35 5 246
1993023S14120 1993 6 SI WA LENA 1993-01-24 12:00:00 TS -14.6000 119.867 45 985 bom main 379 379 O_____O_____O_ jtwc_sh SH131993 -14.8000 119.500 35 0 -14.2000 120.600 30 45 985 3.00000 215 3 5 -14.8000 119.500 TC 35 5 241
1993023S14120 1993 6 SI WA LENA 1993-01-24 15:00:00 TS -14.7284 119.632 45 985 bom main 394 386 P_____O_____P_ SH131993 -14.8925 119.148 37 0 -14.4000 120.600 30 45 985 3.00000 215 3 5 -14.8925 119.148 TC 37 5 234
1993023S14120 1993 6 SI WA LENA 1993-01-24 18:00:00 TS -14.9000 119.433 50 985 bom main 395 389 O_____O_____O_ jtwc_sh SH131993 -15.0000 118.900 40 0 -14.7000 120.500 30 50 985 3.50000 215 3 5 -15.0000 118.900 TC 40 5 218
1993023S14120 1993 6 SI WA LENA 1993-01-24 21:00:00 TS -15.0950 119.332 50 985 bom main 391 378 P_____O_____P_ SH131993 -15.1424 118.847 42 0 -15.0000 120.300 30 50 985 3.50000 215 3 5 -15.1424 118.847 TC 42 4 202
1993023S14120 1993 6 SI WA LENA 1993-01-25 00:00:00 TS -15.3000 119.267 50 985 bom main 378 378 O_____O_____O_ jtwc_sh SH131993 -15.3000 118.900 45 0 -15.3000 120.000 30 50 985 3.50000 215 3 5 -15.3000 118.900 TC 45 4 200
1993023S14120 1993 6 SI WA LENA 1993-01-25 03:00:00 TS -15.4333 119.205 50 980 bom main 381 371 P_____O_____P_ SH131993 -15.4500 118.957 45 0 -15.4000 119.700 30 50 980 3.50000 215 3 5 -15.4500 118.957 TC 45 3 197
1993023S14120 1993 6 SI WA LENA 1993-01-25 06:00:00 TS -15.6000 119.167 50 980 bom main 371 366 O_____O_____O_ jtwc_sh SH131993 -15.6000 119.000 45 0 -15.6000 119.500 30 50 980 3.50000 215 3 5 -15.6000 119.000 TC 45 4 192
1993023S14120 1993 6 SI WA LENA 1993-01-25 09:00:00 TS -15.8000 119.120 50 980 bom main 370 365 P_____O_____P_ SH131993 -15.7500 118.980 47 0 -15.9000 119.400 30 50 980 3.50000 242 3 5 -15.7500 118.980 TC 47 4 201
1993023S14120 1993 6 SI WA LENA 1993-01-25 12:00:00 TS -16.0000 119.000 55 975 bom main 370 370 O_____O_____O_ jtwc_sh SH131993 -15.9000 118.900 50 0 -16.2000 119.200 30 55 975 4.00000 242 3 5 -15.9000 118.900 TC 50 4 219
1993023S14120 1993 6 SI WA LENA 1993-01-25 15:00:00 TS -16.1150 118.853 55 975 bom main 376 376 P_____O_____P_ SH131993 -16.0725 118.780 50 0 -16.2000 119.000 30 55 975 4.00000 242 3 5 -16.0725 118.780 TC 50 4 240
1993023S14120 1993 6 SI WA LENA 1993-01-25 18:00:00 TS -16.2000 118.633 55 972 bom main 402 402 O_____O_____O_ jtwc_sh SH131993 -16.2000 118.600 50 0 -16.2000 118.700 30 55 972 4.00000 242 3 5 -16.2000 118.600 TC 50 5 257
1993023S14120 1993 6 SI WA LENA 1993-01-25 21:00:00 TS -16.2200 118.377 55 972 bom main 423 423 P_____O_____P_ SH131993 -16.2300 118.365 52 0 -16.2000 118.400 30 55 972 4.00000 242 3 5 -16.2300 118.365 TC 52 5 274
1993023S14120 1993 6 SI WA LENA 1993-01-26 00:00:00 TS -16.1667 118.100 55 975 bom main 448 448 O_____O_____O_ jtwc_sh SH131993 -16.2000 118.100 55 0 -16.1000 118.100 30 55 975 4.00000 242 3 5 -16.2000 118.100 TC 55 5 285
1993023S14120 1993 6 SI WA LENA 1993-01-26 03:00:00 TS -16.0766 117.833 50 975 bom main 468 468 P_____O_____P_ SH131993 -16.1650 117.850 55 0 -15.9000 117.800 30 50 975 3.50000 242 3 5 -16.1650 117.850 TC 55 5 288
1993023S14120 1993 6 SI WA LENA 1993-01-26 06:00:00 TS -16.0000 117.567 50 975 bom main 485 485 O_____O_____O_ jtwc_sh SH131993 -16.1000 117.600 55 0 -15.8000 117.500 30 50 975 3.50000 242 3 5 -16.1000 117.600 TC 55 5 288
1993023S14120 1993 6 SI WA LENA 1993-01-26 09:00:00 TS -15.9100 117.295 45 975 bom main 507 507 P_____O_____P_ SH131993 -16.0150 117.343 52 0 -15.7000 117.200 30 45 975 3.00000 242 3 5 -16.0150 117.343 TC 52 6 294
1993023S14120 1993 6 SI WA LENA 1993-01-26 12:00:00 TS -15.7667 117.033 45 980 bom main 527 527 O_____O_____O_ jtwc_sh SH131993 -15.9000 117.100 50 0 -15.5000 116.900 30 45 980 3.00000 242 3 5 -15.9000 117.100 TC 50 5 310
1993023S14120 1993 6 SI WA LENA 1993-01-26 15:00:00 TS -15.5999 116.905 45 985 bom main 551 551 P_____O_____P_ SH131993 -15.7499 116.908 50 0 -15.3000 116.900 30 45 985 3.00000 242 3 5 -15.7499 116.908 TC 50 5 304
1993023S14120 1993 6 SI WA LENA 1993-01-26 18:00:00 TS -15.4667 116.567 40 990 bom main 570 570 O_____O_____O_ jtwc_sh SH131993 -15.6000 116.700 50 0 -15.2000 116.300 30 40 990 3.00000 242 3 5 -15.6000 116.700 TC 50 6 290
1993023S14120 1993 6 SI WA LENA 1993-01-26 21:00:00 TS -15.3850 116.287 40 990 bom main 583 583 P_____O_____P_ SH131993 -15.4774 116.430 50 0 -15.2000 116.000 30 40 990 3.00000 242 3 5 -15.4774 116.430 TC 50 6 280
1993023S14120 1993 6 SI WA LENA 1993-01-27 00:00:00 TS -15.3667 115.967 40 990 bom main 586 586 O_____O_____O_ jtwc_sh SH131993 -15.4000 116.100 50 0 -15.3000 115.700 30 40 990 3.00000 242 3 5 -15.4000 116.100 TC 50 7 264
1993023S14120 1993 6 SI WA LENA 1993-01-27 03:00:00 TS -15.4517 115.610 40 990 bom main 582 576 P_____O_____P_ SH131993 -15.3775 115.715 50 0 -15.6000 115.400 30 40 990 3.00000 242 3 5 -15.3775 115.715 TC 50 7 250
1993023S14120 1993 6 SI WA LENA 1993-01-27 06:00:00 TS -15.6000 115.300 40 990 bom main 578 573 O_____O_____O_ jtwc_sh SH131993 -15.4000 115.300 50 0 -16.0000 115.300 30 40 990 3.00000 242 3 5 -15.4000 115.300 TC 50 7 249
1993023S14120 1993 6 SI WA LENA 1993-01-27 09:00:00 TS -15.6950 114.967 40 990 bom main 576 576 P_____O_____P_ SH131993 -15.4424 114.900 50 0 -16.2000 115.100 30 40 990 3.00000 242 3 5 -15.4424 114.900 TC 50 7 256
1993023S14120 1993 6 SI WA LENA 1993-01-27 12:00:00 TS -15.7667 114.600 40 990 bom main 581 581 O_____O_____O_ jtwc_sh SH131993 -15.5000 114.500 50 0 -16.3000 114.800 30 40 990 3.00000 242 3 5 -15.5000 114.500 TC 50 7 262
1993023S14120 1993 6 SI WA LENA 1993-01-27 15:00:00 TS -15.7999 114.210 40 992 bom main 598 598 P_____O_____P_ SH131993 -15.5498 114.115 50 0 -16.3000 114.400 30 40 992 3.00000 242 3 5 -15.5498 114.115 TC 50 8 265
1993023S14120 1993 6 SI WA LENA 1993-01-27 18:00:00 TS -15.8333 113.800 40 992 bom main 618 618 O_____O_____O_ jtwc_sh SH131993 -15.6000 113.700 50 0 -16.3000 114.000 30 40 992 3.00000 242 3 5 -15.6000 113.700 TC 50 8 265
1993023S14120 1993 6 SI WA LENA 1993-01-27 21:00:00 TS -15.8666 113.348 40 992 bom main 636 636 P_____O_____P_ SH131993 -15.6499 113.222 50 0 -16.3000 113.600 30 40 992 3.00000 242 3 5 -15.6499 113.222 TC 50 9 266
1993023S14120 1993 6 SI WA LENA 1993-01-28 00:00:00 TS -15.9000 112.867 35 995 bom main 658 658 O_____O_____O_ jtwc_sh SH131993 -15.7000 112.700 50 0 -16.3000 113.200 30 35 995 3.00000 242 3 5 -15.7000 112.700 TC 50 9 268
1993023S14120 1993 6 SI WA LENA 1993-01-28 03:00:00 TS -15.8999 112.372 35 995 bom main 688 688 P_____O_____P_ SH131993 -15.7499 112.157 47 0 -16.2000 112.800 30 35 995 3.00000 215 3 5 -15.7499 112.157 TC 47 10 268
1993023S14120 1993 6 SI WA LENA 1993-01-28 06:00:00 TS -15.9333 111.867 35 995 bom main 706 702 O_____O_____O_ jtwc_sh SH131993 -15.8000 111.600 45 0 -16.2000 112.400 30 35 995 3.00000 215 3 5 -15.8000 111.600 TC 45 10 266
1993023S14120 1993 6 SI WA LENA 1993-01-28 09:00:00 TS -15.9717 111.342 35 995 bom main 718 718 P_____O_____P_ SH131993 -15.8576 111.013 42 0 -16.2000 112.000 30 35 995 3.00000 215 3 5 -15.8576 111.013 TC 42 10 268
1993023S14120 1993 6 SI WA LENA 1993-01-28 12:00:00 TS -15.9667 110.833 35 995 bom main 740 740 O_____O_____O_ jtwc_sh SH131993 -15.9000 110.500 40 0 -16.1000 111.500 30 35 995 3.00000 215 3 5 -15.9000 110.500 TC 40 9 272
1993023S14120 1993 6 SI WA LENA 1993-01-28 15:00:00 TS -15.9382 110.403 35 995 bom main 770 770 P_____O_____P_ SH131993 -15.9073 110.155 40 0 -16.0000 110.900 30 35 995 3.00000 215 3 5 -15.9073 110.155 TC 40 8 272
1993023S14120 1993 6 SI WA LENA 1993-01-28 18:00:00 TS -15.9333 110.000 40 992 bom main 792 792 O_____O_____O_ jtwc_sh SH131993 -15.9000 109.900 40 0 -16.0000 110.200 30 40 992 3.00000 215 3 5 -15.9000 109.900 TC 40 8 273
1993023S14120 1993 6 SI WA LENA 1993-01-28 21:00:00 TS -15.9000 109.623 40 992 bom main 815 815 P_____O_____P_ SH131993 -15.9000 109.635 37 0 -15.9000 109.600 30 40 992 3.00000 215 3 5 -15.9000 109.635 TC 37 6 273
1993023S14120 1993 6 SI WA LENA 1993-01-29 00:00:00 TS -15.9000 109.333 40 992 bom main 833 833 O_____O_____O_ jtwc_sh SH131993 -15.9000 109.400 35 0 -15.9000 109.200 30 40 992 3.00000 188 3 5 -15.9000 109.400 TC 35 5 269
1993023S14120 1993 6 SI WA LENA 1993-01-29 03:00:00 TS -15.9050 109.085 40 992 bom main 846 846 P_____O_____P_ SH131993 -15.9075 109.178 35 0 -15.9000 108.900 30 40 992 3.00000 188 3 5 -15.9075 109.178 TC 35 4 275
1993023S14120 1993 6 SI WA LENA 1993-01-29 06:00:00 TS -15.8667 108.900 40 992 bom main 859 859 O_____O_____O_ jtwc_sh SH131993 -15.9000 109.000 35 0 -15.8000 108.700 30 40 992 3.00000 188 3 5 -15.9000 109.000 TC 35 4 281
1993023S14120 1993 6 SI WA LENA 1993-01-29 09:00:00 TS -15.8383 108.713 40 992 bom main 878 878 P_____O_____P_ SH131993 -15.8575 108.870 35 0 -15.8000 108.400 30 40 992 3.00000 188 3 5 -15.8575 108.870 TC 35 3 287
1993023S14120 1993 6 SI WA LENA 1993-01-29 12:00:00 TS -15.7667 108.567 40 990 bom main 881 873 O_____O_____O_ jtwc_sh SH131993 -15.8000 108.800 35 0 -15.7000 108.100 30 40 990 3.00000 188 3 5 -15.8000 108.800 TC 35 3 297
1993023S14120 1993 6 SI WA LENA 1993-01-29 15:00:00 TS -15.6950 108.418 40 990 bom main 876 865 P_____O_____P_ SH131993 -15.7425 108.778 35 0 -15.6000 107.700 30 40 990 3.00000 188 3 5 -15.7425 108.778 TC 35 3 301
1993023S14120 1993 6 SI WA LENA 1993-01-29 18:00:00 TS -15.6333 108.333 40 990 bom main 868 868 O_____O_____O_ jtwc_sh SH131993 -15.7000 108.800 35 0 -15.5000 107.400 30 40 990 3.00000 188 3 5 -15.7000 108.800 TC 35 2 303
1993023S14120 1993 6 SI WA LENA 1993-01-29 21:00:00 TS -15.5950 108.262 40 990 bom main 868 868 P_____O_____P_ SH131993 -15.6925 108.843 35 0 -15.4000 107.100 30 40 990 3.00000 188 3 5 -15.6925 108.843 TC 35 1 304
1993023S14120 1993 6 SI WA LENA 1993-01-30 00:00:00 TS -15.5667 108.233 40 990 bom main 872 868 O_____O_____O_ jtwc_sh SH131993 -15.7000 108.900 35 0 -15.3000 106.900 30 40 990 3.00000 188 3 5 -15.7000 108.900 TC 35 0 0
1993023S14120 1993 6 SI WA LENA 1993-01-30 03:00:00 TS -15.5950 108.267 40 990 bom main 868 868 P_____O_____P_ SH131993 -15.6925 108.950 35 0 -15.4000 106.900 30 40 990 3.00000 188 3 5 -15.6925 108.950 TC 35 1 109
1993023S14120 1993 6 SI WA LENA 1993-01-30 06:00:00 TS -15.6000 108.333 40 990 bom main 868 865 O_____O_____O_ jtwc_sh SH131993 -15.7000 109.000 35 0 -15.4000 107.000 30 40 990 3.00000 188 3 5 -15.7000 109.000 TC 35 2 102
1993023S14120 1993 6 SI WA LENA 1993-01-30 09:00:00 TS -15.6283 108.433 40 990 bom main 865 862 P_____O_____P_ SH131993 -15.7425 109.050 35 0 -15.4000 107.200 30 40 990 3.00000 188 3 5 -15.7425 109.050 TC 35 2 123
1993023S14120 1993 6 SI WA LENA 1993-01-30 12:00:00 TS -15.7000 108.500 40 990 bom main 873 870 O_____O_____O_ jtwc_sh SH131993 -15.8000 109.100 35 0 -15.5000 107.300 30 40 990 3.00000 188 3 5 -15.8000 109.100 TC 35 2 131
1993023S14120 1993 6 SI WA LENA 1993-01-30 15:00:00 TS -15.7383 108.562 45 988 bom main 870 870 P_____O_____P_ SH131993 -15.8575 109.143 35 0 -15.5000 107.400 30 45 988 3.00000 188 3 5 -15.8575 109.143 TC 35 2 128
1993023S14120 1993 6 SI WA LENA 1993-01-30 18:00:00 TS -15.8000 108.633 45 988 bom main 881 878 O_____O_____O_ jtwc_sh SH131993 -15.9000 109.200 35 0 -15.6000 107.500 30 45 988 3.00000 188 3 5 -15.9000 109.200 TC 35 2 112
1993023S14120 1993 6 SI WA LENA 1993-01-30 21:00:00 TS -15.8000 108.723 45 988 bom main 878 874 P_____O_____P_ SH131993 -15.9000 109.285 35 0 -15.6000 107.600 30 45 988 3.00000 188 3 5 -15.9000 109.285 TC 35 2 100
1993023S14120 1993 6 SI WA LENA 1993-01-31 00:00:00 TS -15.8333 108.833 45 988 bom main 874 852 O_____O_____O_ jtwc_sh SH131993 -15.9000 109.400 35 0 -15.7000 107.700 30 45 988 3.00000 188 3 5 -15.9000 109.400 TC 35 3 109
1993023S14120 1993 6 SI WA LENA 1993-01-31 03:00:00 TS -15.8900 108.990 45 988 bom main 852 830 P_____O_____P_ SH131993 -15.9350 109.535 35 0 -15.8000 107.900 30 45 988 3.00000 188 3 5 -15.9350 109.535 TC 35 3 113
1993023S14120 1993 6 SI WA LENA 1993-01-31 06:00:00 TS -15.9667 109.167 45 988 bom main 830 809 O_____O_____O_ jtwc_sh SH131993 -16.0000 109.700 35 0 -15.9000 108.100 30 45 988 3.00000 188 3 5 -16.0000 109.700 TC 35 4 119
1993023S14120 1993 6 SI WA LENA 1993-01-31 09:00:00 TS -16.1050 109.390 45 988 bom main 809 781 P_____O_____P_ SH131993 -16.1075 109.885 35 0 -16.1000 108.400 30 45 988 3.00000 188 3 5 -16.1075 109.885 TC 35 6 118
1993023S14120 1993 6 SI WA LENA 1993-01-31 12:00:00 TS -16.2333 109.700 45 988 bom main 781 754 O_____O_____O_ jtwc_sh SH131993 -16.2000 110.100 35 0 -16.3000 108.900 30 45 988 3.00000 161 3 5 -16.2000 110.100 TC 35 6 112
1993023S14120 1993 6 SI WA LENA 1993-01-31 15:00:00 TS -16.3433 110.013 45 988 bom main 754 727 P_____O_____P_ SH131993 -16.2149 110.320 35 0 -16.6000 109.400 30 45 988 3.00000 161 3 5 -16.2149 110.320 TC 35 7 105
1993023S14120 1993 6 SI WA LENA 1993-01-31 18:00:00 TS -16.4000 110.367 45 988 bom main 722 701 O_____O_____O_ jtwc_sh SH131993 -16.2000 110.600 35 0 -16.8000 109.900 30 45 988 3.00000 161 3 5 -16.2000 110.600 TC 35 8 97
1993023S14120 1993 6 SI WA LENA 1993-01-31 21:00:00 TS -16.4333 110.808 45 988 bom main 701 681 P_____O_____P_ SH131993 -16.1999 110.963 35 0 -16.9000 110.500 30 45 988 3.00000 161 3 5 -16.1999 110.963 TC 35 8 92
1993023S14120 1993 6 SI WA LENA 1993-02-01 00:00:00 TS -16.4333 111.233 45 988 bom main 681 660 O_____O_____O_ jtwc_sh SH131993 -16.2000 111.400 35 0 -16.9000 110.900 30 45 988 3.00000 161 3 5 -16.2000 111.400 TC 35 9 90
1993023S14120 1993 6 SI WA LENA 1993-02-01 03:00:00 TS -16.4333 111.723 45 988 bom main 660 643 P_____O_____P_ SH131993 -16.2000 111.885 32 -1 -16.9000 111.400 30 45 988 3.00000 161 3 5 -16.2000 111.885 TC 32 10 90
1993023S14120 1993 6 SI WA LENA 1993-02-01 06:00:00 TS -16.4333 112.267 45 988 bom main 640 617 O_____O_____O_ jtwc_sh SH131993 -16.2000 112.400 30 -1 -16.9000 112.000 30 45 988 3.00000 161 3 5 -16.2000 112.400 TC 30 11 90
1993023S14120 1993 6 SI WA LENA 1993-02-01 09:00:00 TS -16.4333 112.833 45 988 bom main 617 583 P_____O_____P_ SH131993 -16.1999 112.900 30 -1 -16.9000 112.700 30 45 988 3.00000 161 3 5 -16.1999 112.900 TC 30 11 88
1993023S14120 1993 6 SI WA LENA 1993-02-01 12:00:00 TS -16.4000 113.400 40 990 bom main 583 554 O_____O_____O_ jtwc_sh SH131993 -16.2000 113.400 30 -1 -16.8000 113.400 30 40 990 3.00000 161 3 5 -16.2000 113.400 TC 30 11 87
1993023S14120 1993 6 SI WA LENA 1993-02-01 15:00:00 TS -16.3716 113.933 40 990 bom main 554 533 P_____O_____P_ SH131993 -16.2074 113.900 30 -1 -16.7000 114.000 30 40 990 3.00000 161 3 5 -16.2074 113.900 TC 30 11 86
1993023S14120 1993 6 SI WA LENA 1993-02-01 18:00:00 TS -16.3333 114.500 40 990 bom main 534 517 O_____O_____O_ jtwc_sh SH131993 -16.2000 114.400 30 -1 -16.6000 114.700 30 40 990 3.00000 161 3 5 -16.2000 114.400 TC 30 11 83
1993023S14120 1993 6 SI WA LENA 1993-02-01 21:00:00 TS -16.2332 115.028 40 990 bom main 523 513 P_____O_____P_ SH131993 -16.1498 114.893 30 -1 -16.4000 115.300 30 40 990 3.00000 161 3 5 -16.1498 114.893 TC 30 11 77
1993023S14120 1993 6 SI WA LENA 1993-02-02 00:00:00 TS -16.1000 115.567 40 992 bom main 516 510 O_____O_____O_ jtwc_sh SH131993 -16.1000 115.400 30 -1 -16.1000 115.900 30 40 992 3.00000 134 3 5 -16.1000 115.400 TC 30 11 79
1993023S14120 1993 6 SI WA LENA 1993-02-02 03:00:00 TS -16.0283 116.128 35 995 bom main 518 514 P_____O_____P_ SH131993 -16.0924 115.942 30 -1 -15.9000 116.500 30 35 995 3.00000 134 3 5 -16.0924 115.942 TC 30 12 84
1993023S14120 1993 6 SI WA LENA 1993-02-02 06:00:00 TS -15.9800 116.780 35 995 bom main 511 492 O_____O_____O_ jtwc_sh SH131993 -16.1000 116.500 30 -1 -15.8000 117.200 30 35 995 3.00000 107 3 5 -16.1000 116.500 TC 30 13 89
1993023S14120 1993 6 SI WA LENA 1993-02-02 09:00:00 TS -16.0014 117.476 35 995 bom main 488 440 P_____O_____P_ SH131993 -16.1028 117.053 30 -1 -15.9000 117.900 30 35 995 3.00000 80 3 5 -16.1028 117.053 TC 30 15 89
1993023S14120 1993 6 SI WA LENA 1993-02-02 12:00:00 TS -15.9667 118.333 25 1000 bom main 440 346 O_____O_____O_ jtwc_sh SH131993 -16.1000 117.600 30 -1 -15.9000 118.700 20 25 1000 2.00000 80 3 5 -16.1000 117.600 TC 30 19 87
1993023S14120 1993 6 SI WA LENA 1993-02-02 15:00:00 NR -15.9000 119.400 25 1002 bom main 337 261 ______O_______ SH131993 -1 -15.9000 119.400 20 25 1002 2.00000 80 3 5 TC 18 88
1993023S14120 1993 6 SI WA LENA 1993-02-02 18:00:00 NR -15.9000 120.200 20 1005 bom main 261 200 ______O_______ -1 -15.9000 120.200 20 20 1005 1.00000 80 3 5 14 90
1993023S14120 1993 6 SI WA LENA 1993-02-02 21:00:00 NR -15.9000 120.900 20 1005 bom main 200 ______O_______ -1 -15.9000 120.900 20 20 1005 1.00000 80 3 5 13 90

About IBTrACS Database

This database is a web-friendly format of International Best Track Archive for Climate Stewardship (IBTrACS), a global best track data archive curated by NOAA dating back to 1842.

Updated: 2021-12-03